Statia Express — V7TT3 — position and weather

sailwx.info

Track history (hours):
 
Tides and Currents Weather Stations Pressure Air Temp Water Temp Dewpoint Dewpoint Depression Visibility Wind Speed Wind Dir Waves Ship Positions

Statia Express

Last reported at 2017-Feb-23 21:28 UTC. Time now 2017-Feb-28 07:38 UTC.
Position N 17°40' W 063°03'.

Length 28 m; draft 4 m.

Type: Tug. MMSI: 538003879.

Date/timePositionNaut miles runAvg speedWind from/ knotsBaromVisibWave heightAir tempDewpointWater temp
2017-Feb-23 21:28N 17°40' W 063°03'5 5.3
2017-Feb-23 20:30N 17°45' W 063°04'5 5.2
2017-Feb-23 19:31N 17°50' W 063°04'5 5.1
2017-Feb-23 18:28N 17°56' W 063°05'4 4.5
2017-Feb-23 17:30N 17°60' W 063°04'1 0.2
2017-Feb-23 10:25N 18°01' W 063°03'0 0.0
2017-Feb-23 08:27N 18°01' W 063°03'0 0.0
2017-Feb-23 07:24N 18°01' W 063°03'0 0.2
2017-Feb-23 05:31N 18°00' W 063°03'0 0.3
2017-Feb-23 04:32N 18°01' W 063°03'0 0.0
2017-Feb-23 00:08N 18°01' W 063°03'0 0.0
2017-Feb-22 21:13N 18°01' W 063°03'0 0.1
2017-Feb-22 17:13N 18°01' W 063°03'0 0.0
2017-Feb-22 16:14N 18°01' W 063°03'0 0.0
2017-Feb-22 12:15N 18°01' W 063°03'2 2.1
2017-Feb-22 11:32N 18°01' W 063°04'0 0.1
2017-Feb-22 10:12N 18°01' W 063°04'0 0.1
2017-Feb-22 09:30N 18°01' W 063°04'1 0.6
2017-Feb-22 07:16N 18°00' W 063°03'2 3.0
2017-Feb-22 06:32N 17°59' W 063°04'5 4.8
2017-Feb-22 05:33N 17°54' W 063°04'6 4.9
2017-Feb-22 04:20N 17°48' W 063°04'37 4.1
2017-Feb-21 19:23N 17°16' W 062°44'1 0.2
2017-Feb-21 12:30N 17°17' W 062°43'0 0.0
2017-Feb-21 11:19N 17°17' W 062°43'0 0.0
2017-Feb-21 10:20N 17°17' W 062°43'  
2017-Feb-18 01:15N 17°40' W 063°03'5 7.3
2017-Feb-18 00:33N 17°46' W 063°03'8 7.2
2017-Feb-17 23:28N 17°53' W 063°04'7 6.8
2017-Feb-17 22:29N 17°60' W 063°05'1 1.0
2017-Feb-17 21:10N 18°01' W 063°05'0 0.0
2017-Feb-17 19:30N 18°01' W 063°05'0 0.0
2017-Feb-17 18:33N 18°01' W 063°05'0 0.0
2017-Feb-17 17:24N 18°01' W 063°05'0 0.0
2017-Feb-17 16:28N 18°01' W 063°05'0 0.0
2017-Feb-17 15:09N 18°01' W 063°05'0 0.0
2017-Feb-17 14:19N 18°01' W 063°05'0 0.0
2017-Feb-17 13:32N 18°01' W 063°05'0 0.0
2017-Feb-17 12:29N 18°01' W 063°05'2 0.8
2017-Feb-17 10:12N 18°01' W 063°03'1 0.0
2017-Feb-16 04:33N 18°00' W 063°04'5 4.3
2017-Feb-16 03:27N 17°56' W 063°04'6 6.1
2017-Feb-16 02:33N 17°50' W 063°04'  
Track history (hours):
 
Tides and Currents Weather Stations Pressure Air Temp Water Temp Dewpoint Dewpoint Depression Visibility Wind Speed Wind Dir Waves Ship Positions

Statia Express

Last reported at 2017-Feb-23 21:28 UTC. Time now 2017-Feb-28 07:38 UTC.
Position N 17°40' W 063°03'.

Length 28 m; draft 4 m.

Type: Tug. MMSI: 538003879.

Date/timePositionNaut miles runAvg speedWind from/ knotsBaromVisibWave heightAir tempDewpointWater temp
2017-Feb-23 21:28N 17°40' W 063°03'5 5.3
2017-Feb-23 20:30N 17°45' W 063°04'5 5.2
2017-Feb-23 19:31N 17°50' W 063°04'5 5.1
2017-Feb-23 18:28N 17°56' W 063°05'4 4.5
2017-Feb-23 17:30N 17°60' W 063°04'1 0.2
2017-Feb-23 10:25N 18°01' W 063°03'0 0.0
2017-Feb-23 08:27N 18°01' W 063°03'0 0.0
2017-Feb-23 07:24N 18°01' W 063°03'0 0.2
2017-Feb-23 05:31N 18°00' W 063°03'0 0.3
2017-Feb-23 04:32N 18°01' W 063°03'0 0.0
2017-Feb-23 00:08N 18°01' W 063°03'0 0.0
2017-Feb-22 21:13N 18°01' W 063°03'0 0.1
2017-Feb-22 17:13N 18°01' W 063°03'0 0.0
2017-Feb-22 16:14N 18°01' W 063°03'0 0.0
2017-Feb-22 12:15N 18°01' W 063°03'2 2.1
2017-Feb-22 11:32N 18°01' W 063°04'0 0.1
2017-Feb-22 10:12N 18°01' W 063°04'0 0.1
2017-Feb-22 09:30N 18°01' W 063°04'1 0.6
2017-Feb-22 07:16N 18°00' W 063°03'2 3.0
2017-Feb-22 06:32N 17°59' W 063°04'5 4.8
2017-Feb-22 05:33N 17°54' W 063°04'6 4.9
2017-Feb-22 04:20N 17°48' W 063°04'37 4.1
2017-Feb-21 19:23N 17°16' W 062°44'1 0.2
2017-Feb-21 12:30N 17°17' W 062°43'0 0.0
2017-Feb-21 11:19N 17°17' W 062°43'0 0.0
2017-Feb-21 10:20N 17°17' W 062°43'  
2017-Feb-18 01:15N 17°40' W 063°03'5 7.3
2017-Feb-18 00:33N 17°46' W 063°03'8 7.2
2017-Feb-17 23:28N 17°53' W 063°04'7 6.8
2017-Feb-17 22:29N 17°60' W 063°05'1 1.0
2017-Feb-17 21:10N 18°01' W 063°05'0 0.0
2017-Feb-17 19:30N 18°01' W 063°05'0 0.0
2017-Feb-17 18:33N 18°01' W 063°05'0 0.0
2017-Feb-17 17:24N 18°01' W 063°05'0 0.0
2017-Feb-17 16:28N 18°01' W 063°05'0 0.0
2017-Feb-17 15:09N 18°01' W 063°05'0 0.0
2017-Feb-17 14:19N 18°01' W 063°05'0 0.0
2017-Feb-17 13:32N 18°01' W 063°05'0 0.0
2017-Feb-17 12:29N 18°01' W 063°05'2 0.8
2017-Feb-17 10:12N 18°01' W 063°03'1 0.0
2017-Feb-16 04:33N 18°00' W 063°04'5 4.3
2017-Feb-16 03:27N 17°56' W 063°04'6 6.1
2017-Feb-16 02:33N 17°50' W 063°04'  

Dump ship's entire track history